Time;durP1;ratioP1;P1;durP2;ratioP2;P2;SDS_P1;SDS_P2;PMS_P1;PMS_P2;Temp;Humidity;BMP_temperature;BMP_pressure;BME280_temperature;BME280_humidity;BME280_pressure;Samples;Min_cycle;Max_cycle;Signal;HPM_P1;HPM_P2
2021/04/19 00:00:21;;;;;;;37.78;20.27;;;;;;;6.75;100.00;98090.06;5053937;28;20056;-79
2021/04/19 00:02:47;;;;;;;39.53;20.98;;;;;;;6.75;100.00;98090.06;5057412;28;20075;-78
2021/04/19 00:05:15;;;;;;;41.10;22.20;;;;;;;6.68;100.00;98089.56;5055752;28;20045;-78
2021/04/19 00:07:42;;;;;;;41.78;21.70;;;;;;;6.78;100.00;98086.81;5017078;28;20363;-79
2021/04/19 00:10:11;;;;;;;43.65;22.80;;;;;;;6.73;100.00;98078.78;5051921;28;20044;-79
2021/04/19 00:12:37;;;;;;;38.03;20.58;;;;;;;6.86;100.00;98092.38;5033298;28;20416;-78
2021/04/19 00:15:10;;;;;;;35.58;20.10;;;;;;;6.81;100.00;98091.63;5050971;28;20045;-78
2021/04/19 00:17:38;;;;;;;38.80;21.92;;;;;;;6.89;100.00;98088.34;5033488;28;20646;-78
2021/04/19 00:20:06;;;;;;;41.22;23.20;;;;;;;6.81;100.00;98072.81;5050837;28;20036;-78
2021/04/19 00:22:34;;;;;;;40.25;22.80;;;;;;;6.66;100.00;98076.38;5051931;28;20504;-78
2021/04/19 00:25:02;;;;;;;44.63;23.75;;;;;;;6.66;100.00;98064.81;5033338;28;20041;-78
2021/04/19 00:27:29;;;;;;;50.72;25.83;;;;;;;6.66;100.00;98075.56;5051129;28;20059;-78
2021/04/19 00:29:55;;;;;;;45.00;23.92;;;;;;;6.73;100.00;98078.78;5032099;28;20041;-77
2021/04/19 00:32:21;;;;;;;58.25;27.95;;;;;;;6.81;100.00;98065.50;5050017;28;20045;-79
2021/04/19 00:34:47;;;;;;;59.97;29.08;;;;;;;6.81;100.00;98068.19;5050520;28;20075;-78
2021/04/19 00:37:13;;;;;;;65.05;30.67;;;;;;;6.86;100.00;98057.41;5059744;28;20033;-80
2021/04/19 00:39:41;;;;;;;59.92;29.80;;;;;;;6.91;100.00;98067.34;5054935;28;20094;-77
2021/04/19 00:42:07;;;;;;;57.92;29.05;;;;;;;6.94;100.00;98060.59;5051402;28;20053;-77
2021/04/19 00:44:33;;;;;;;54.92;27.80;;;;;;;6.94;100.00;98060.59;5049651;28;20063;-78
2021/04/19 00:47:00;;;;;;;51.42;27.92;;;;;;;6.93;100.00;98065.16;5051031;28;20053;-79
2021/04/19 00:49:28;;;;;;;61.90;31.20;;;;;;;6.86;100.00;98080.84;5051250;28;20094;-79
2021/04/19 00:51:55;;;;;;;63.83;31.02;;;;;;;6.76;100.00;98065.53;5032885;28;20080;-79
2021/04/19 00:54:23;;;;;;;63.35;30.08;;;;;;;6.74;100.00;98075.78;5050692;28;20049;-79
2021/04/19 00:56:50;;;;;;;72.70;30.55;;;;;;;6.74;100.00;98072.28;5050953;28;20045;-79
2021/04/19 00:59:16;;;;;;;56.80;28.63;;;;;;;6.82;100.00;98069.00;5039596;28;20045;-78
2021/04/19 01:01:44;;;;;;;56.65;28.25;;;;;;;6.80;100.00;98069.31;5051556;28;20044;-78
2021/04/19 01:04:10;;;;;;;59.95;29.17;;;;;;;6.76;100.00;98072.84;5050361;28;20041;-79
2021/04/19 01:06:36;;;;;;;59.33;27.60;;;;;;;6.71;100.00;98064.81;5050054;28;20112;-79
2021/04/19 01:09:10;;;;;;;51.10;26.23;;;;;;;6.81;100.00;98073.56;5033168;28;20049;-79
2021/04/19 01:11:36;;;;;;;51.40;25.77;;;;;;;6.80;100.00;98058.53;5051212;28;20314;-79
2021/04/19 01:14:02;;;;;;;47.30;25.63;;;;;;;6.79;100.00;98069.56;5050750;28;20132;-77
2021/04/19 01:16:29;;;;;;;51.65;25.33;;;;;;;6.69;100.00;98062.38;5050441;28;20045;-77
2021/04/19 01:18:55;;;;;;;52.53;27.13;;;;;;;6.58;100.00;98068.88;5050166;28;20037;-78
2021/04/19 01:21:21;;;;;;;50.83;26.15;;;;;;;6.66;100.00;98075.56;5050343;28;20579;-78
2021/04/19 01:23:47;;;;;;;52.45;26.90;;;;;;;6.73;100.00;98076.06;5049654;28;20047;-78
2021/04/19 01:26:13;;;;;;;48.70;25.80;;;;;;;6.74;100.00;98077.66;5058803;28;20084;-77
2021/04/19 01:28:50;;;;;;;44.70;24.42;;;;;;;6.70;100.00;98074.75;5050692;28;20060;-76
2021/04/19 01:31:17;;;;;;;44.42;24.50;;;;;;;6.68;100.00;98070.72;5049643;28;20456;-78
2021/04/19 01:33:44;;;;;;;42.78;23.13;;;;;;;6.69;100.00;98075.81;5051563;28;20107;-76
2021/04/19 01:36:10;;;;;;;48.60;25.70;;;;;;;6.59;100.00;98059.75;5031734;28;20098;-79
2021/04/19 01:38:37;;;;;;;48.08;24.52;;;;;;;6.56;100.00;98070.25;5049855;28;20072;-78
2021/04/19 01:41:03;;;;;;;44.80;24.65;;;;;;;6.43;100.00;98063.59;5032672;28;20084;-79
2021/04/19 01:43:30;;;;;;;41.60;22.92;;;;;;;6.32;100.00;98069.31;5053587;28;20053;-79
2021/04/19 01:45:57;;;;;;;41.45;22.42;;;;;;;6.21;100.00;98058.63;5053894;28;20049;-79
2021/04/19 01:48:25;;;;;;;43.25;23.65;;;;;;;6.09;100.00;98052.75;5053511;28;20444;-78
2021/04/19 01:50:52;;;;;;;40.03;21.52;;;;;;;6.06;100.00;98060.56;5053775;28;20041;-79
2021/04/19 01:53:19;;;;;;;42.22;22.20;;;;;;;5.86;100.00;98048.00;5052443;28;20090;-78
2021/04/19 01:55:46;;;;;;;44.63;21.95;;;;;;;5.82;100.00;98059.53;5035222;28;20048;-79
2021/04/19 01:58:19;;;;;;;52.10;24.13;;;;;;;5.70;100.00;98059.84;5053409;28;20083;-79
2021/04/19 02:00:49;;;;;;;53.70;26.00;;;;;;;5.64;100.00;98052.88;5056613;28;20072;-79
2021/04/19 02:03:42;;;;;;;40.22;20.85;;;;;;;5.48;100.00;98048.63;5055375;28;20041;-79
2021/04/19 02:06:28;;;;;;;39.17;20.60;;;;;;;5.30;100.00;98052.69;5053915;28;20224;-78
2021/04/19 02:09:02;;;;;;;;;;;;;;;5.19;100.00;98053.75;5036220;28;20059;-78
2021/04/19 02:11:34;;;;;;;37.58;19.63;;;;;;;5.02;100.00;98058.59;5052294;28;19929;-79
2021/04/19 02:14:12;;;;;;;38.00;20.40;;;;;;;4.96;100.00;98060.47;5034950;28;20056;-79
2021/04/19 02:16:47;;;;;;;40.30;21.55;;;;;;;4.94;100.00;98062.63;5053865;28;20041;-79
2021/04/19 02:19:34;;;;;;;53.60;23.17;;;;;;;4.91;100.00;98071.19;5054099;28;20056;-80
2021/04/19 02:22:08;;;;;;;49.35;22.85;;;;;;;4.86;100.00;98057.78;5054154;28;20091;-78
2021/04/19 02:24:41;;;;;;;48.15;23.50;;;;;;;4.81;100.00;98051.63;5056849;28;20041;-78
2021/04/19 02:27:13;;;;;;;41.00;21.70;;;;;;;4.80;100.00;98060.75;5051498;28;20052;-77
2021/04/19 02:29:51;;;;;;;43.58;20.90;;;;;;;4.78;100.00;98057.50;5034112;28;20049;-78
2021/04/19 02:32:20;;;;;;;48.30;22.75;;;;;;;4.74;100.00;98051.06;5052431;28;20049;-77
2021/04/19 02:34:50;;;;;;;42.63;21.00;;;;;;;4.63;100.00;98041.41;5050743;28;20107;-78
2021/04/19 02:37:17;;;;;;;40.85;19.77;;;;;;;4.58;100.00;98050.25;5051280;28;20057;-78
2021/04/19 02:39:47;;;;;;;118.13;22.25;;;;;;;4.52;100.00;98053.97;5051792;28;20047;-79
2021/04/19 02:42:14;;;;;;;44.30;21.30;;;;;;;4.45;100.00;98045.41;5034213;28;20056;-78
2021/04/19 02:44:44;;;;;;;43.28;21.58;;;;;;;4.44;100.00;98043.78;5051760;28;20045;-78
2021/04/19 02:47:12;;;;;;;43.55;20.80;;;;;;;4.47;100.00;98053.97;5051610;28;20049;-76
2021/04/19 02:49:39;;;;;;;38.53;17.65;;;;;;;4.43;100.00;98062.81;5051811;28;20045;-77
2021/04/19 02:52:06;;;;;;;29.90;16.23;;;;;;;4.36;100.00;98057.72;5033540;28;20037;-77
2021/04/19 02:54:34;;;;;;;35.78;17.35;;;;;;;4.30;100.00;98066.81;5048952;28;20381;-77
2021/04/19 02:57:01;;;;;;;50.55;18.08;;;;;;;4.23;100.00;98063.59;5050818;28;20041;-77
2021/04/19 02:59:29;;;;;;;45.28;19.17;;;;;;;4.23;100.00;98063.59;5051766;28;20041;-78
2021/04/19 03:02:01;;;;;;;41.55;20.00;;;;;;;4.17;100.00;98052.03;5034622;28;20059;-78
2021/04/19 03:04:33;;;;;;;38.30;19.58;;;;;;;4.12;100.00;98051.22;5051915;28;20029;-78
2021/04/19 03:07:03;;;;;;;36.13;17.30;;;;;;;4.16;100.00;98058.44;5052026;28;20049;-79
2021/04/19 03:09:29;;;;;;;64.03;19.25;;;;;;;4.09;100.00;98057.91;5034200;28;20561;-77
2021/04/19 03:12:03;;;;;;;42.72;18.52;;;;;;;4.10;100.00;98058.72;5051460;28;20041;-81
2021/04/19 03:14:34;;;;;;;40.05;19.83;;;;;;;4.05;100.00;98054.13;5051484;28;20052;-78
2021/04/19 03:17:14;;;;;;;60.63;20.58;;;;;;;4.05;100.00;98058.69;5051742;28;20106;-79
2021/04/19 03:19:52;;;;;;;110.78;21.77;;;;;;;3.95;100.00;98055.97;5037479;28;20045;-79
2021/04/19 03:22:21;;;;;;;153.27;22.40;;;;;;;3.88;100.00;98050.03;5055602;28;20057;-80
2021/04/19 03:24:51;;;;;;;192.57;23.00;;;;;;;3.81;100.00;98052.16;5035853;28;20067;-80
2021/04/19 03:27:19;;;;;;;89.32;21.15;;;;;;;3.76;100.00;98059.13;5052169;28;20041;-79
2021/04/19 03:29:46;;;;;;;122.38;22.65;;;;;;;3.78;100.00;98062.34;5052519;28;20554;-79
2021/04/19 03:32:17;;;;;;;391.48;24.48;;;;;;;3.72;100.00;98060.69;5053622;28;20116;-79
2021/04/19 03:34:45;;;;;;;86.40;21.70;;;;;;;3.67;100.00;98060.66;5018492;28;20378;-80
2021/04/19 03:37:12;;;;;;;302.50;27.15;;;;;;;3.69;100.00;98066.56;5033225;28;20138;-79
2021/04/19 03:39:40;;;;;;;79.13;23.02;;;;;;;3.75;100.00;98070.06;5015657;28;20096;-80
2021/04/19 03:42:09;;;;;;;322.02;26.25;;;;;;;3.71;100.00;98066.31;5031386;28;20045;-79
2021/04/19 03:44:41;;;;;;;239.75;26.02;;;;;;;3.75;100.00;98064.72;5020026;28;20388;-80
2021/04/19 03:47:11;;;;;;;266.13;27.65;;;;;;;3.74;100.00;98063.91;5052247;23;20047;-80
2021/04/19 03:49:44;;;;;;;297.02;29.83;;;;;;;3.85;100.00;98061.25;5033398;28;20465;-79
2021/04/19 03:52:15;;;;;;;277.00;30.90;;;;;;;3.91;100.00;98063.72;5048257;28;20087;-82
2021/04/19 03:54:46;;;;;;;254.75;32.08;;;;;;;3.98;100.00;98063.47;5046383;28;20406;-83
2021/04/19 03:57:17;;;;;;;527.65;35.47;;;;;;;4.01;100.00;98068.31;5049448;28;20524;-83
2021/04/19 03:59:54;;;;;;;439.23;34.55;;;;;;;4.03;100.00;98066.97;5048281;28;20114;-83
2021/04/19 04:02:26;;;;;;;424.42;34.17;;;;;;;4.10;100.00;98070.25;5062757;28;20056;-82
2021/04/19 04:04:56;;;;;;;513.20;37.10;;;;;;;4.10;100.00;98072.91;5063618;28;20094;-82
2021/04/19 04:07:24;;;;;;;237.68;33.17;;;;;;;4.13;100.00;98074.28;5032714;28;20048;-83
2021/04/19 04:09:51;;;;;;;530.63;36.13;;;;;;;4.11;100.00;98085.22;5044618;28;20055;-83
2021/04/19 04:12:17;;;;;;;435.88;35.47;;;;;;;4.12;100.00;98084.19;5058886;28;20063;-83
2021/04/19 04:14:52;;;;;;;403.40;34.38;;;;;;;4.14;100.00;98082.03;5072803;28;20048;-82
2021/04/19 04:17:18;;;;;;;303.33;34.45;;;;;;;4.29;100.00;98089.31;5066562;28;20334;-83
2021/04/19 04:19:45;;;;;;;209.90;33.47;;;;;;;4.21;100.00;98082.59;5065944;28;20454;-78
2021/04/19 04:22:14;;;;;;;271.85;34.55;;;;;;;4.28;100.00;98085.03;5084713;28;20045;-80
2021/04/19 04:24:41;;;;;;;322.38;35.40;;;;;;;4.23;100.00;98082.34;5087302;28;20386;-84
2021/04/19 04:27:08;;;;;;;166.32;30.90;;;;;;;4.33;100.00;98088.53;5088363;28;20044;-82
2021/04/19 04:29:34;;;;;;;104.90;30.60;;;;;;;4.45;100.00;98085.59;5018424;28;20377;-82
2021/04/19 04:32:01;;;;;;;406.23;35.10;;;;;;;4.51;100.00;98092.59;5048321;28;20041;-84
2021/04/19 04:34:27;;;;;;;318.83;36.90;;;;;;;4.54;100.00;98084.03;5029029;28;20045;-84
2021/04/19 04:36:54;;;;;;;162.50;34.08;;;;;;;4.75;100.00;98087.56;5029164;28;20044;-83
2021/04/19 04:39:20;;;;;;;479.33;41.83;;;;;;;4.68;100.00;98090.50;5028037;28;20122;-82
2021/04/19 04:41:46;;;;;;;106.65;34.25;;;;;;;4.92;100.00;98093.47;5046133;28;20045;-82
2021/04/19 04:44:24;;;;;;;164.63;33.63;;;;;;;4.98;100.00;98082.47;5045435;28;20122;-81
2021/04/19 04:47:19;;;;;;;296.65;33.00;;;;;;;4.97;100.00;98085.44;5046928;28;20038;-80
2021/04/19 04:50:04;;;;;;;254.70;32.57;;;;;;;4.94;100.00;98085.97;5027749;28;20136;-83
2021/04/19 04:52:36;;;;;;;406.27;37.07;;;;;;;5.04;100.00;98077.91;5049520;28;20285;-83
2021/04/19 04:55:06;;;;;;;106.82;35.90;;;;;;;5.32;100.00;98080.03;5014185;28;20038;-83
2021/04/19 04:57:34;;;;;;;588.65;42.83;;;;;;;5.32;100.00;98073.88;5035802;28;20057;-83
2021/04/19 05:00:04;;;;;;;218.27;38.85;;;;;;;5.47;100.00;98076.56;5043945;28;20037;-83
2021/04/19 05:02:31;;;;;;;302.10;39.33;;;;;;;5.52;100.00;98090.75;5046661;28;20040;-82
2021/04/19 05:04:58;;;;;;;292.67;38.38;;;;;;;5.55;100.00;98084.03;5046923;28;20124;-82
2021/04/19 05:07:24;;;;;;;154.43;37.08;;;;;;;5.66;100.00;98086.44;5045167;28;20037;-83
2021/04/19 05:09:51;;;;;;;191.85;38.00;;;;;;;5.71;100.00;98090.19;5028779;28;20049;-83
2021/04/19 05:12:17;;;;;;;220.60;35.65;;;;;;;5.68;100.00;98089.66;5024693;28;20049;-83
2021/04/19 05:15:09;;;;;;;126.32;35.80;;;;;;;5.89;100.00;98103.88;5019912;28;20470;-83
2021/04/19 05:17:38;;;;;;;173.15;35.03;;;;;;;5.76;100.00;98098.22;5043210;28;20052;-83
2021/04/19 05:20:06;;;;;;;330.13;36.22;;;;;;;5.65;100.00;98097.47;5049548;28;20457;-83
2021/04/19 05:22:33;;;;;;;496.42;40.10;;;;;;;5.38;100.00;98092.41;5008552;28;20055;-84
2021/04/19 05:24:59;;;;;;;349.65;36.55;;;;;;;5.37;100.00;98087.28;5046035;28;20345;-84
2021/04/19 05:27:26;;;;;;;479.02;39.22;;;;;;;5.42;100.00;98098.03;5047964;28;20139;-83
2021/04/19 05:29:52;;;;;;;207.68;33.90;;;;;;;5.56;100.00;98099.09;5047358;28;20506;-83
2021/04/19 05:32:21;;;;;;;411.48;36.97;;;;;;;5.68;100.00;98101.50;5025516;28;20515;-83
2021/04/19 05:34:49;;;;;;;168.88;34.03;;;;;;;5.77;100.00;98107.91;5041373;28;20489;-83
2021/04/19 05:37:17;;;;;;;265.60;37.47;;;;;;;5.76;100.00;98098.22;5049716;28;20049;-83
2021/04/19 05:39:44;;;;;;;229.35;35.85;;;;;;;5.77;100.00;98103.34;5029474;28;20071;-84
2021/04/19 05:42:15;;;;;;;242.57;36.33;;;;;;;5.66;100.00;98104.44;5012299;28;20057;-83
2021/04/19 05:44:43;;;;;;;137.95;35.25;;;;;;;5.70;100.00;98100.16;5013420;28;20045;-83
2021/04/19 05:47:12;;;;;;;88.63;37.03;;;;;;;5.91;100.00;98106.31;5028352;28;20063;-83
2021/04/19 05:49:40;;;;;;;85.18;34.40;;;;;;;5.83;100.00;98102.28;5047204;28;20140;-84
2021/04/19 05:52:09;;;;;;;137.13;35.35;;;;;;;5.74;100.00;98098.50;5046220;28;20045;-84
2021/04/19 05:54:36;;;;;;;122.20;33.17;;;;;;;5.78;100.00;98096.88;5047543;28;20045;-84
2021/04/19 05:57:42;;;;;;;88.03;34.03;;;;;;;5.62;100.00;98095.31;5050004;28;20049;-85
2021/04/19 06:00:33;;;;;;;93.53;36.43;;;;;;;5.93;100.00;98094.22;5034610;28;20044;-83
2021/04/19 06:03:20;;;;;;;87.20;35.90;;;;;;;6.17;100.00;98094.38;5044280;28;20113;-83
2021/04/19 06:06:18;;;;;;;74.70;33.78;;;;;;;6.50;100.00;98098.28;5047907;28;20059;-83
2021/04/19 06:09:02;;;;;;;62.05;31.35;;;;;;;6.69;100.00;98091.16;5036246;28;20045;-83
2021/04/19 06:11:45;;;;;;;57.08;29.10;;;;;;;6.69;100.00;98097.34;5048668;28;20049;-84
2021/04/19 06:14:14;;;;;;;54.90;28.50;;;;;;;6.80;100.00;98092.72;5030157;28;20107;-83
2021/04/19 06:16:43;;;;;;;52.47;28.67;;;;;;;7.04;100.00;98093.63;5049245;28;20178;-84
2021/04/19 06:19:13;;;;;;;55.35;28.58;;;;;;;7.20;100.00;98086.25;5049183;28;20053;-83
2021/04/19 06:21:40;;;;;;;55.28;29.20;;;;;;;7.35;100.00;98086.91;5030805;28;20063;-84
2021/04/19 06:24:07;;;;;;;51.55;26.70;;;;;;;7.39;100.00;98085.25;5007850;28;20262;-83
2021/04/19 06:26:35;;;;;;;50.08;27.02;;;;;;;7.42;100.00;98086.56;5031647;28;20103;-83
2021/04/19 06:29:03;;;;;;;49.75;26.88;;;;;;;7.56;100.00;98084.03;5046524;28;20432;-83
2021/04/19 06:31:32;;;;;;;49.95;27.10;;;;;;;7.57;100.00;98091.00;5049540;28;20064;-82
2021/04/19 06:34:05;;;;;;;58.22;28.30;;;;;;;7.67;100.00;98080.94;5015235;28;20207;-83
2021/04/19 06:36:37;;;;;;;50.28;26.60;;;;;;;7.85;100.00;98082.09;5048091;28;20045;-84
2021/04/19 06:39:05;;;;;;;50.13;26.35;;;;;;;7.99;100.00;98074.94;5032790;28;20116;-83
2021/04/19 06:41:34;;;;;;;43.08;24.88;;;;;;;7.97;100.00;98077.94;5031730;28;20056;-85
2021/04/19 06:44:01;;;;;;;42.53;24.77;;;;;;;8.10;100.00;98087.22;5019358;28;20485;-85
2021/04/19 06:46:35;;;;;;;42.55;24.80;;;;;;;8.07;100.00;98077.00;5031438;28;20413;-81
2021/04/19 06:49:04;;;;;;;45.75;24.33;;;;;;;8.09;100.00;98088.31;5068756;28;20040;-83
2021/04/19 06:51:32;;;;;;;42.08;23.88;;;;;;;7.53;100.00;98083.50;5052313;28;20063;-83
2021/04/19 06:54:00;;;;;;;43.78;25.17;;;;;;;7.64;100.00;98086.88;5034931;28;20149;-84
2021/04/19 06:56:41;;;;;;;39.97;23.73;;;;;;;8.08;100.00;98090.19;5052030;28;20040;-85
2021/04/19 06:59:15;;;;;;;41.88;25.13;;;;;;;8.20;100.00;98089.00;5071223;28;20052;-85
2021/04/19 07:01:42;;;;;;;45.08;25.67;;;;;;;8.54;100.00;98095.84;5069696;28;20041;-85
2021/04/19 07:04:17;;;;;;;36.85;22.77;;;;;;;8.84;100.00;98093.81;5069195;28;20115;-83
2021/04/19 07:06:46;;;;;;;37.05;23.20;;;;;;;8.61;100.00;98090.91;5051314;28;20084;-83
2021/04/19 07:09:28;;;;;;;40.58;23.13;;;;;;;8.82;100.00;98091.44;5050092;28;20056;-83
2021/04/19 07:12:18;;;;;;;39.05;22.05;;;;;;;9.16;100.00;98089.28;5049750;28;20139;-83
2021/04/19 07:14:48;;;;;;;34.78;21.50;;;;;;;9.30;100.00;98071.22;5068406;28;20041;-83
2021/04/19 07:17:14;;;;;;;35.65;21.65;;;;;;;9.04;100.00;98071.91;5050653;28;20110;-83
2021/04/19 07:19:41;;;;;;;35.60;21.08;;;;;;;9.26;100.00;98075.63;5068232;28;20047;-83
2021/04/19 07:22:10;;;;;;;32.08;20.98;;;;;;;9.12;100.00;98076.66;5033307;28;20422;-84
2021/04/19 07:24:37;;;;;;;32.30;20.38;;;;;;;9.31;100.00;98077.44;5049062;28;20250;-83
2021/04/19 07:27:04;;;;;;;33.35;21.35;;;;;;;8.06;100.00;98070.00;5066939;28;20067;-83
2021/04/19 07:29:31;;;;;;;34.58;21.08;;;;;;;8.98;100.00;98084.69;5059663;28;20124;-84
2021/04/19 07:31:58;;;;;;;34.00;21.08;;;;;;;9.60;100.00;98075.28;5047151;28;20432;-83
2021/04/19 07:34:29;;;;;;;28.75;18.52;;;;;;;9.93;100.00;98059.84;5067594;28;20469;-83
2021/04/19 07:36:58;;;;;;;28.92;18.98;;;;;;;9.91;100.00;98054.69;5067205;28;20041;-82
2021/04/19 07:39:26;;;;;;;24.88;16.55;;;;;;;10.27;100.00;98054.03;5049839;28;20052;-84
2021/04/19 07:42:06;;;;;;;22.63;15.43;;;;;;;10.11;100.00;98058.94;5049157;28;20059;-83
2021/04/19 07:44:43;;;;;;;25.13;16.50;;;;;;;10.03;100.00;98054.22;5066039;28;20460;-84
2021/04/19 07:47:19;;;;;;;27.52;17.27;;;;;;;10.29;100.00;98054.53;5049348;28;20453;-86
2021/04/19 07:49:57;;;;;;;22.92;15.32;;;;;;;10.21;100.00;98053.34;5050437;28;20055;-85
2021/04/19 07:52:30;;;;;;;26.23;16.20;;;;;;;10.31;100.00;98049.63;5051203;28;20045;-85
2021/04/19 07:55:20;;;;;;;24.67;16.20;;;;;;;10.69;100.00;98034.69;5068210;28;20151;-85
2021/04/19 07:58:22;;;;;;;26.38;16.25;;;;;;;10.66;100.00;98039.94;5052885;28;20048;-85
2021/04/19 08:01:06;;;;;;;21.92;14.75;;;;;;;11.13;100.00;98042.84;5054431;28;20350;-85
2021/04/19 08:03:38;;;;;;;24.02;15.35;;;;;;;11.10;100.00;98043.47;5035784;28;20050;-84
2021/04/19 08:06:21;;;;;;;24.90;14.83;;;;;;;11.25;100.00;98039.59;5050515;28;20068;-84
2021/04/19 08:08:49;;;;;;;21.08;13.43;;;;;;;11.30;100.00;98020.50;5050582;28;20302;-84
2021/04/19 08:11:26;;;;;;;22.58;14.77;;;;;;;10.99;100.00;98027.78;5052330;28;20056;-86
2021/04/19 08:14:04;;;;;;;23.90;14.20;;;;;;;11.14;100.00;98039.06;5034532;28;20055;-85
2021/04/19 08:16:31;;;;;;;18.15;12.45;;;;;;;10.76;100.00;98040.50;5050244;28;20060;-85
2021/04/19 08:19:05;;;;;;;29.92;18.65;;;;;;;10.35;100.00;98043.28;5066547;28;20100;-84
2021/04/19 08:21:33;;;;;;;34.67;19.92;;;;;;;9.62;100.00;98051.50;5068308;28;20048;-85
2021/04/19 08:24:13;;;;;;;32.50;20.75;;;;;;;10.19;100.00;98041.22;5049856;28;20534;-85
2021/04/19 08:26:51;;;;;;;30.98;19.70;;;;;;;9.76;100.00;98046.09;5049988;28;20044;-84
2021/04/19 08:29:40;;;;;;;32.55;19.58;;;;;;;9.60;100.00;98042.84;5068136;28;20056;-85
2021/04/19 08:32:08;;;;;;;36.72;22.00;;;;;;;9.34;100.00;98052.53;5049478;28;20044;-84
2021/04/19 08:34:35;;;;;;;32.75;20.63;;;;;;;10.19;100.00;98060.16;5068722;28;20220;-84
2021/04/19 08:37:05;;;;;;;37.55;23.08;;;;;;;9.34;100.00;98055.25;5049602;28;20070;-83
2021/04/19 08:39:33;;;;;;;37.17;22.10;;;;;;;9.49;100.00;98065.78;5053838;28;20048;-85
2021/04/19 08:42:17;;;;;;;35.58;22.27;;;;;;;9.49;100.00;98071.19;5077638;28;20082;-85
2021/04/19 08:44:44;;;;;;;35.13;22.30;;;;;;;9.93;100.00;98066.03;5070862;28;20044;-84
2021/04/19 08:47:15;;;;;;;32.22;20.23;;;;;;;10.34;100.00;98059.84;5068270;28;20041;-84
2021/04/19 08:49:42;;;;;;;33.67;21.92;;;;;;;10.46;100.00;98070.94;5051086;28;20468;-84
2021/04/19 08:52:09;;;;;;;37.15;22.50;;;;;;;9.55;100.00;98072.69;5035538;28;20464;-84
2021/04/19 08:54:35;;;;;;;36.25;22.58;;;;;;;10.33;100.00;98071.75;5054492;28;20036;-85
2021/04/19 08:57:02;;;;;;;36.75;22.08;;;;;;;10.87;100.00;98068.13;5054089;28;20055;-85
2021/04/19 08:59:32;;;;;;;44.03;23.15;;;;;;;10.98;100.00;98077.63;5046655;28;20441;-84
2021/04/19 09:01:58;;;;;;;33.70;22.08;;;;;;;11.14;100.00;98076.19;5070510;28;20056;-85
2021/04/19 09:04:28;;;;;;;34.10;21.67;;;;;;;11.14;100.00;98073.47;5052413;28;20036;-85
2021/04/19 09:06:58;;;;;;;35.13;22.75;;;;;;;11.03;100.00;98070.19;5054230;28;20119;-83
2021/04/19 09:09:30;;;;;;;37.17;23.08;;;;;;;11.20;100.00;98073.03;5054587;28;20064;-85
2021/04/19 09:11:57;;;;;;;40.05;22.83;;;;;;;11.40;100.00;98074.47;5055398;28;20044;-86
2021/04/19 09:14:34;;;;;;;35.50;22.60;;;;;;;11.20;100.00;98072.25;5055172;28;20456;-85
2021/04/19 09:17:02;;;;;;;33.75;21.35;;;;;;;11.59;100.00;98068.81;5053363;28;20508;-85
2021/04/19 09:19:31;;;;;;;37.50;23.25;;;;;;;11.75;100.00;98062.72;5071349;28;20123;-85
2021/04/19 09:22:08;;;;;;;36.35;23.15;;;;;;;12.10;100.00;98060.97;5044750;28;20060;-85
2021/04/19 09:24:52;;;;;;;38.60;22.65;;;;;;;12.28;100.00;98064.53;5051314;28;20473;-85
2021/04/19 09:27:44;;;;;;;34.55;21.90;;;;;;;12.45;100.00;98059.94;5052554;28;20048;-84
2021/04/19 09:30:26;;;;;;;33.15;21.48;;;;;;;13.22;100.00;98066.56;5051912;28;20525;-84
2021/04/19 09:33:07;;;;;;;32.63;21.00;;;;;;;13.19;100.00;98059.06;5053822;28;20080;-85
2021/04/19 09:35:43;;;;;;;33.58;22.13;;;;;;;12.76;100.00;98057.13;5082793;23;20045;-78
2021/04/19 09:38:14;;;;;;;33.53;21.88;;;;;;;13.09;100.00;98049.31;5056969;28;20063;-78
2021/04/19 09:40:57;;;;;;;35.45;22.30;;;;;;;13.09;100.00;98057.47;5056876;28;20054;-76
2021/04/19 09:43:47;;;;;;;33.22;20.15;;;;;;;13.04;100.00;98052.97;5075372;28;20041;-77
2021/04/19 09:46:17;;;;;;;30.35;19.42;;;;;;;13.24;100.00;98058.91;5057741;28;20044;-77
2021/04/19 09:48:43;;;;;;;31.30;20.25;;;;;;;12.67;100.00;98052.78;5074535;28;20040;-77
2021/04/19 09:51:15;;;;;;;33.45;20.45;;;;;;;12.41;100.00;98050.81;5084136;23;20084;-77
2021/04/19 09:53:59;;;;;;;33.03;21.05;;;;;;;12.60;100.00;98049.72;5071983;28;20042;-77
2021/04/19 09:56:30;;;;;;;27.65;18.55;;;;;;;12.68;100.00;98057.09;5054398;28;20056;-77
2021/04/19 09:58:57;;;;;;;30.85;18.73;;;;;;;12.55;100.00;98052.59;5070103;28;20059;-78
2021/04/19 10:01:25;;;;;;;29.27;19.52;;;;;;;12.13;100.00;98046.75;5069589;28;20119;-77
2021/04/19 10:03:53;;;;;;;33.22;21.00;;;;;;;11.79;100.00;98033.06;5073131;28;20055;-78
2021/04/19 10:06:25;;;;;;;32.30;21.17;;;;;;;11.34;100.00;98042.34;5039266;28;20088;-77
2021/04/19 10:09:21;;;;;;;37.03;22.25;;;;;;;11.18;100.00;98037.31;5054762;28;20036;-77
2021/04/19 10:12:07;;;;;;;37.70;23.65;;;;;;;11.03;100.00;98045.81;5073907;28;20051;-77
2021/04/19 10:14:38;;;;;;;42.20;23.20;;;;;;;11.10;100.00;98038.06;5073782;28;20054;-77
2021/04/19 10:17:18;;;;;;;36.33;22.58;;;;;;;11.14;100.00;98040.97;5064490;28;20505;-78
2021/04/19 10:19:45;;;;;;;34.97;22.33;;;;;;;11.77;100.00;98035.28;5085413;28;20040;-77
2021/04/19 10:22:12;;;;;;;41.40;24.15;;;;;;;11.88;100.00;98031.19;5091226;28;20074;-77
2021/04/19 10:24:56;;;;;;;41.33;24.90;;;;;;;11.64;100.00;98028.81;5060524;28;20068;-76
2021/04/19 10:27:28;;;;;;;36.83;23.73;;;;;;;11.67;100.00;98027.38;5081600;28;20094;-77
2021/04/19 10:30:06;;;;;;;35.38;22.38;;;;;;;11.82;100.00;98027.81;5083528;28;20048;-77
2021/04/19 10:32:33;;;;;;;36.03;21.02;;;;;;;11.71;100.00;98014.84;5052091;28;20375;-77
2021/04/19 10:34:59;;;;;;;36.60;22.83;;;;;;;11.64;100.00;98019.91;5052661;28;20040;-77
2021/04/19 10:37:25;;;;;;;36.40;21.50;;;;;;;11.69;100.00;98023.28;5051442;28;20372;-77
2021/04/19 10:39:52;;;;;;;36.33;19.55;;;;;;;11.78;100.00;98017.91;5088561;28;20052;-77
2021/04/19 10:42:23;;;;;;;33.85;19.98;;;;;;;12.22;100.00;98019.63;5051559;28;20048;-77
2021/04/19 10:44:50;;;;;;;33.42;19.15;;;;;;;13.42;100.00;98022.41;5056332;28;20044;-77
2021/04/19 10:47:28;;;;;;;29.58;18.27;;;;;;;14.64;100.00;98022.34;5088930;28;20040;-77
2021/04/19 10:49:55;;;;;;;31.55;18.52;;;;;;;14.89;100.00;98013.97;5083836;28;20048;-76
2021/04/19 10:52:22;;;;;;;26.95;16.05;;;;;;;15.42;100.00;98015.88;5070267;28;20044;-77
2021/04/19 10:54:48;;;;;;;29.33;18.40;;;;;;;15.01;100.00;98021.41;5086339;28;20044;-77
2021/04/19 10:57:23;;;;;;;28.55;18.70;;;;;;;14.39;100.00;98009.69;5089753;28;20051;-77
2021/04/19 10:59:52;;;;;;;25.92;16.55;;;;;;;13.88;100.00;97995.22;5053287;28;20048;-78
2021/04/19 11:02:44;;;;;;;26.42;17.67;;;;;;;13.68;100.00;97995.91;5072470;28;20052;-77
2021/04/19 11:05:12;;;;;;;26.63;16.98;;;;;;;13.93;100.00;97989.59;5066913;28;20105;-77
2021/04/19 11:07:44;;;;;;;27.48;17.73;;;;;;;14.39;100.00;97996.88;5075902;28;20036;-77
2021/04/19 11:10:15;;;;;;;28.83;18.33;;;;;;;14.66;100.00;97992.84;5080054;28;20063;-77
2021/04/19 11:12:58;;;;;;;26.92;17.63;;;;;;;14.23;100.00;97993.88;5057187;28;20116;-77
2021/04/19 11:15:36;;;;;;;25.95;17.25;;;;;;;14.00;100.00;97986.34;5082755;28;20272;-77
2021/04/19 11:18:23;;;;;;;28.02;17.40;;;;;;;13.84;100.00;97977.91;5089078;28;20155;-76
2021/04/19 11:20:51;;;;;;;26.13;17.60;;;;;;;14.81;100.00;97987.56;5074356;28;20044;-76
2021/04/19 11:23:24;;;;;;;28.17;17.95;;;;;;;17.18;100.00;97985.19;5076034;28;20075;-76
2021/04/19 11:25:53;;;;;;;23.77;16.52;;;;;;;17.18;100.00;97985.19;5084636;28;20088;-77
2021/04/19 11:28:31;;;;;;;26.60;17.48;;;;;;;18.89;63.24;97977.25;5088593;28;20123;-77
2021/04/19 11:31:19;;;;;;;27.63;17.75;;;;;;;18.86;68.43;97970.53;5081986;28;20060;-77
2021/04/19 11:33:45;;;;;;;26.02;17.17;;;;;;;19.57;60.90;97969.16;5066629;28;20589;-77